Time;durP1;ratioP1;P1;durP2;ratioP2;P2;SDS_P1;SDS_P2;PMS_P1;PMS_P2;Temp;Humidity;BMP_temperature;BMP_pressure;BME280_temperature;BME280_humidity;BME280_pressure;Samples;Min_cycle;Max_cycle;Signal;HPM_P1;HPM_P2
2022/08/28 00:03:04;;;;;;;7.50;3.30;;;20.10;99.90;;;;;;10477591;28;20694;-68
2022/08/28 00:08:05;;;;;;;9.23;3.70;;;20.10;99.90;;;;;;10477137;28;20702;-68
2022/08/28 00:13:07;;;;;;;6.90;3.07;;;20.10;99.90;;;;;;10478283;28;20223;-69
2022/08/28 00:18:07;;;;;;;5.23;3.43;;;20.10;99.90;;;;;;10482788;28;20235;-68
2022/08/28 00:23:08;;;;;;;7.80;3.20;;;20.10;99.90;;;;;;10479044;28;20747;-68
2022/08/28 00:28:10;;;;;;;5.53;3.40;;;20.10;99.90;;;;;;10477840;28;20249;-68
2022/08/28 00:33:13;;;;;;;6.80;3.50;;;20.10;99.90;;;;;;10492136;28;20241;-68
2022/08/28 00:38:14;;;;;;;5.77;3.13;;;20.10;99.90;;;;;;10469270;28;20260;-68
2022/08/28 00:43:43;;;;;;;3.93;3.07;;;20.00;99.90;;;;;;10476105;28;20226;-68
2022/08/28 00:48:47;;;;;;;5.37;2.97;;;19.90;99.90;;;;;;10465695;28;20217;-69
2022/08/28 00:53:47;;;;;;;6.77;3.60;;;19.90;99.90;;;;;;10474884;28;20232;-69
2022/08/28 00:58:51;;;;;;;6.37;3.40;;;19.80;99.90;;;;;;10477791;28;20218;-69
2022/08/28 01:03:52;;;;;;;6.67;3.77;;;19.80;99.90;;;;;;10467288;28;20226;-69
2022/08/28 01:08:53;;;;;;;5.07;3.20;;;19.80;99.90;;;;;;10475905;28;20218;-69
2022/08/28 01:13:56;;;;;;;11.13;3.33;;;19.80;99.90;;;;;;10470463;28;20230;-68
2022/08/28 01:18:59;;;;;;;5.33;3.23;;;19.90;99.90;;;;;;10477207;28;20315;-69
2022/08/28 01:24:13;;;;;;;6.03;3.10;;;19.80;99.90;;;;;;10470835;28;20242;-69
2022/08/28 01:29:15;;;;;;;7.43;2.90;;;19.80;99.90;;;;;;10472862;28;20221;-69
2022/08/28 01:34:15;;;;;;;7.53;3.27;;;19.80;99.90;;;;;;10473560;28;20257;-69
2022/08/28 01:39:21;;;;;;;4.97;3.73;;;19.80;99.90;;;;;;10468435;28;20245;-69
2022/08/28 01:44:24;;;;;;;5.20;3.10;;;19.80;99.90;;;;;;10472417;28;20214;-68
2022/08/28 01:49:28;;;;;;;5.57;3.13;;;19.80;99.90;;;;;;10462793;28;20644;-68
2022/08/28 01:54:28;;;;;;;3.97;2.87;;;19.80;99.90;;;;;;10476904;28;20230;-68
2022/08/28 01:59:29;;;;;;;3.60;2.87;;;19.80;99.90;;;;;;10471629;28;20215;-69
2022/08/28 02:04:29;;;;;;;5.63;2.90;;;19.80;99.90;;;;;;10468274;28;20218;-69
2022/08/28 02:09:30;;;;;;;5.60;3.20;;;19.80;99.90;;;;;;10470525;28;20211;-69
2022/08/28 02:14:32;;;;;;;6.23;3.40;;;19.80;99.90;;;;;;10475294;28;20302;-69
2022/08/28 02:19:33;;;;;;;6.40;3.17;;;19.80;99.90;;;;;;10463531;28;20581;-68
2022/08/28 02:24:34;;;;;;;6.20;3.00;;;19.70;99.90;;;;;;10476754;28;20219;-68
2022/08/28 02:29:35;;;;;;;7.07;3.40;;;19.70;99.90;;;;;;10468409;28;20208;-68
2022/08/28 02:34:36;;;;;;;7.07;3.10;;;19.80;99.90;;;;;;10475385;28;20220;-68
2022/08/28 02:39:36;;;;;;;6.83;3.47;;;19.70;99.90;;;;;;10469423;28;20636;-69
2022/08/28 02:44:37;;;;;;;4.17;2.90;;;19.70;99.90;;;;;;10475272;28;20214;-69
2022/08/28 02:49:38;;;;;;;4.27;2.97;;;19.70;99.90;;;;;;10469591;28;20222;-70
2022/08/28 02:54:39;;;;;;;8.67;5.83;;;19.70;99.90;;;;;;10476027;28;20247;-69
2022/08/28 02:59:39;;;;;;;5.43;3.07;;;19.70;99.90;;;;;;10469217;28;20246;-69
2022/08/28 03:04:40;;;;;;;3.67;2.80;;;19.70;99.90;;;;;;10478366;28;20284;-69
2022/08/28 03:09:42;;;;;;;3.80;3.00;;;19.70;99.90;;;;;;10476358;28;20310;-69
2022/08/28 03:14:43;;;;;;;3.77;3.00;;;19.70;99.90;;;;;;10476577;28;20219;-69
2022/08/28 03:19:43;;;;;;;5.03;3.13;;;19.70;99.90;;;;;;10478680;28;20658;-69
2022/08/28 03:24:45;;;;;;;6.20;3.30;;;19.60;99.90;;;;;;10476842;28;20341;-69
2022/08/28 03:29:45;;;;;;;4.80;3.00;;;19.60;99.90;;;;;;10477324;28;20954;-69
2022/08/28 03:34:46;;;;;;;7.87;3.20;;;19.60;99.90;;;;;;10475197;28;20313;-69
2022/08/28 03:39:47;;;;;;;6.27;3.07;;;19.60;99.90;;;;;;10472379;28;20689;-69
2022/08/28 03:44:48;;;;;;;3.20;2.83;;;19.50;99.90;;;;;;10475923;28;20559;-69
2022/08/28 03:49:54;;;;;;;6.53;3.20;;;19.50;99.90;;;;;;10482147;28;20231;-69
2022/08/28 03:54:54;;;;;;;6.37;3.17;;;19.40;99.90;;;;;;10458760;28;20305;-68
2022/08/28 03:59:55;;;;;;;6.30;3.23;;;19.50;99.90;;;;;;10475300;28;21801;-68
2022/08/28 04:04:56;;;;;;;6.73;2.77;;;19.40;99.90;;;;;;10471417;28;20218;-68
2022/08/28 04:09:56;;;;;;;7.07;2.67;;;19.40;99.90;;;;;;10479571;28;20226;-69
2022/08/28 04:14:57;;;;;;;6.47;3.20;;;19.30;99.90;;;;;;10477583;28;20226;-69
2022/08/28 04:19:57;;;;;;;8.73;3.13;;;19.30;99.90;;;;;;10479127;28;20634;-69
2022/08/28 04:25:01;;;;;;;10.33;3.27;;;19.30;99.90;;;;;;10478491;28;20225;-68
2022/08/28 04:30:02;;;;;;;8.50;3.13;;;19.30;99.90;;;;;;10471864;28;20216;-68
2022/08/28 04:35:05;;;;;;;6.23;3.23;;;19.30;99.90;;;;;;10477633;28;20251;-68
2022/08/28 04:40:09;;;;;;;6.60;3.10;;;19.20;99.90;;;;;;10477244;28;20221;-68
2022/08/28 04:45:10;;;;;;;6.40;2.70;;;19.30;99.90;;;;;;10476194;28;20241;-68
2022/08/28 04:50:11;;;;;;;7.00;2.77;;;19.20;99.90;;;;;;10473207;28;20207;-69
2022/08/28 04:55:11;;;;;;;9.50;3.00;;;19.20;99.90;;;;;;10470583;28;20215;-69
2022/08/28 05:00:12;;;;;;;6.80;2.93;;;19.20;99.90;;;;;;10476221;28;20236;-68
2022/08/28 05:05:13;;;;;;;8.63;2.87;;;19.20;99.90;;;;;;10470638;28;20754;-69
2022/08/28 05:10:13;;;;;;;9.80;3.00;;;19.20;99.90;;;;;;10469384;28;20202;-69
2022/08/28 05:15:14;;;;;;;6.70;2.80;;;19.20;99.90;;;;;;10463883;28;20304;-68
2022/08/28 05:20:18;;;;;;;7.53;3.10;;;19.20;99.90;;;;;;10476026;28;20181;-68
2022/08/28 05:25:18;;;;;;;10.47;3.20;;;19.20;99.90;;;;;;10472312;28;20209;-68
2022/08/28 05:30:19;;;;;;;8.90;2.70;;;19.20;99.90;;;;;;10471492;28;20782;-69
2022/08/28 05:35:23;;;;;;;8.70;3.03;;;19.20;99.90;;;;;;10465395;28;20272;-68
2022/08/28 05:40:24;;;;;;;7.07;2.83;;;19.30;99.90;;;;;;10469116;28;20226;-68
2022/08/28 05:45:24;;;;;;;7.90;2.93;;;19.40;99.90;;;;;;10470826;28;20225;-69
2022/08/28 05:50:25;;;;;;;7.83;2.83;;;19.60;99.90;;;;;;10479163;28;20216;-69
2022/08/28 05:55:26;;;;;;;7.80;2.90;;;19.80;99.90;;;;;;10477982;28;20235;-69
2022/08/28 06:00:26;;;;;;;9.70;3.10;;;20.00;99.90;;;;;;10472472;28;20231;-70
2022/08/28 06:05:28;;;;;;;8.70;2.70;;;20.10;99.90;;;;;;10470291;28;20233;-68
2022/08/28 06:10:28;;;;;;;8.60;3.10;;;20.20;99.90;;;;;;10474620;28;20954;-70
2022/08/28 06:15:29;;;;;;;6.97;2.57;;;20.30;99.90;;;;;;10463995;28;20376;-69
2022/08/28 06:20:29;;;;;;;10.03;2.73;;;20.40;99.90;;;;;;10472192;28;20248;-68
2022/08/28 06:25:30;;;;;;;5.90;2.57;;;20.50;99.90;;;;;;10466244;28;20229;-67
2022/08/28 06:30:30;;;;;;;7.63;2.30;;;20.90;99.90;;;;;;10467098;28;20302;-69
2022/08/28 06:35:33;;;;;;;8.23;2.63;;;22.20;99.90;;;;;;10462206;28;20234;-70
2022/08/28 06:40:46;;;;;;;6.17;2.50;;;22.60;99.90;;;;;;10478863;28;20220;-69
2022/08/28 06:45:48;;;;;;;8.53;3.23;;;22.50;99.90;;;;;;10473191;28;20284;-69
2022/08/28 06:50:54;;;;;;;7.63;2.37;;;22.40;99.90;;;;;;10476834;28;20900;-69
2022/08/28 06:56:05;;;;;;;7.33;2.67;;;22.30;99.90;;;;;;10484604;28;20239;-70
2022/08/28 07:01:10;;;;;;;8.17;2.60;;;22.40;99.90;;;;;;10481041;28;20573;-68
2022/08/28 07:06:12;;;;;;;12.50;3.07;;;22.90;99.90;;;;;;10479409;28;20232;-69
2022/08/28 07:11:32;;;;;;;10.00;2.87;;;22.90;99.90;;;;;;10469473;28;20219;-68
2022/08/28 07:16:40;;;;;;;10.17;3.10;;;22.90;99.90;;;;;;10479402;28;20652;-68
2022/08/28 07:21:43;;;;;;;8.17;2.80;;;23.10;99.90;;;;;;10468411;28;20285;-68
2022/08/28 07:26:46;;;;;;;5.60;2.47;;;23.20;99.90;;;;;;10466849;28;20211;-68
2022/08/28 07:31:49;;;;;;;14.43;3.00;;;23.30;99.90;;;;;;10467207;28;20224;-68
2022/08/28 07:36:51;;;;;;;6.67;2.57;;;23.80;99.20;;;;;;10464678;28;20242;-69
2022/08/28 07:41:51;;;;;;;5.53;2.13;;;26.10;94.90;;;;;;10475667;28;20226;-69
2022/08/28 07:46:54;;;;;;;7.43;2.47;;;28.50;88.00;;;;;;10479089;28;20698;-69
2022/08/28 07:51:58;;;;;;;6.67;2.50;;;30.70;72.40;;;;;;10481767;28;20215;-69
2022/08/28 07:57:00;;;;;;;7.70;2.70;;;30.40;66.90;;;;;;10475439;28;20224;-69
2022/08/28 08:02:02;;;;;;;6.67;2.77;;;29.00;68.90;;;;;;10472979;28;20233;-68
2022/08/28 08:07:03;;;;;;;5.10;2.37;;;30.40;65.00;;;;;;10476532;28;20222;-69
2022/08/28 08:12:04;;;;;;;5.33;2.57;;;31.20;60.40;;;;;;10479283;28;20592;-69
2022/08/28 08:17:05;;;;;;;7.07;2.57;;;32.80;57.30;;;;;;10477943;28;20229;-69
2022/08/28 08:22:06;;;;;;;8.57;2.67;;;33.40;53.60;;;;;;10478026;28;20226;-69
2022/08/28 08:27:09;;;;;;;8.73;2.90;;;33.40;52.40;;;;;;10475060;28;20212;-69
2022/08/28 08:32:11;;;;;;;7.83;2.80;;;32.30;52.70;;;;;;10484436;28;20213;-69
2022/08/28 08:37:12;;;;;;;8.50;3.23;;;31.20;55.50;;;;;;10483072;28;20223;-69
2022/08/28 08:42:43;;;;;;;7.20;2.97;;;32.20;52.90;;;;;;10476770;28;20258;-69
2022/08/28 08:47:54;;;;;;;7.67;2.63;;;31.30;55.10;;;;;;10465382;28;20714;-69
2022/08/28 08:53:27;;;;;;;5.63;2.77;;;31.20;54.70;;;;;;10479728;28;20215;-68
2022/08/28 08:58:40;;;;;;;4.70;2.43;;;30.20;56.30;;;;;;10464061;28;20254;-68
2022/08/28 09:04:11;;;;;;;6.73;2.60;;;29.70;57.50;;;;;;10471913;28;20226;-68
2022/08/28 09:09:43;;;;;;;6.10;2.50;;;29.10;58.60;;;;;;10475015;28;20265;-67
2022/08/28 09:15:08;;;;;;;6.23;2.77;;;28.70;60.40;;;;;;10462938;28;20635;-69
2022/08/28 09:20:14;;;;;;;6.67;3.00;;;30.10;57.10;;;;;;10475250;28;20613;-68
2022/08/28 09:25:57;;;;;;;6.27;2.70;;;30.20;56.70;;;;;;10466356;28;20203;-69
2022/08/28 09:31:12;;;;;;;10.50;3.47;;;30.90;55.10;;;;;;10464575;28;20219;-68
2022/08/28 09:36:32;;;;;;;9.00;3.37;;;30.00;55.30;;;;;;10462068;28;20268;-69
2022/08/28 09:47:35;;;;;;;5.80;2.90;;;31.70;52.30;;;;;;10472462;28;20224;-68
2022/08/28 09:52:35;;;;;;;7.63;3.03;;;31.90;51.30;;;;;;10463136;28;20301;-69
2022/08/28 09:57:37;;;;;;;5.77;2.63;;;34.30;46.40;;;;;;10478458;28;20746;-68
2022/08/28 10:03:13;;;;;;;4.23;2.50;;;37.10;41.20;;;;;;10470448;28;20227;-69
2022/08/28 10:08:30;;;;;;;4.87;2.50;;;39.10;38.60;;;;;;10466362;28;20220;-69
2022/08/28 10:14:07;;;;;;;7.97;2.73;;;38.50;37.80;;;;;;10464426;28;20239;-69
2022/08/28 10:19:10;;;;;;;5.83;2.90;;;36.50;38.90;;;;;;10461613;28;20275;-69
2022/08/28 10:24:48;;;;;;;3.37;2.40;;;36.40;39.30;;;;;;10477997;28;20592;-69
2022/08/28 10:30:06;;;;;;;5.07;2.53;;;36.30;38.00;;;;;;10461847;28;20211;-69
2022/08/28 10:35:24;;;;;;;6.80;2.90;;;34.00;42.10;;;;;;10462604;28;20581;-68
2022/08/28 10:40:44;;;;;;;4.67;2.60;;;33.40;44.10;;;;;;10465737;28;20251;-69
2022/08/28 10:45:45;;;;;;;5.17;2.47;;;35.10;41.00;;;;;;10457109;28;20258;-68
2022/08/28 10:50:51;;;;;;;6.33;2.73;;;34.70;41.60;;;;;;10467455;28;20315;-68
2022/08/28 10:55:52;;;;;;;5.97;2.60;;;35.50;39.20;;;;;;10465934;28;20606;-68
2022/08/28 11:01:06;;;;;;;6.13;2.63;;;34.90;40.80;;;;;;10470347;28;20242;-68
2022/08/28 11:06:21;;;;;;;6.93;2.63;;;36.70;36.90;;;;;;10467424;28;20242;-68
2022/08/28 11:11:44;;;;;;;6.80;2.70;;;37.10;36.40;;;;;;10465130;28;20655;-68
2022/08/28 11:16:46;;;;;;;6.87;2.90;;;34.60;39.60;;;;;;10462604;28;20722;-67
2022/08/28 11:22:09;;;;;;;4.93;2.83;;;32.50;41.90;;;;;;10467640;28;20577;-68
2022/08/28 11:27:22;;;;;;;5.47;2.87;;;31.20;45.40;;;;;;10470956;28;20597;-67
2022/08/28 11:32:34;;;;;;;4.73;2.83;;;30.60;46.50;;;;;;10481636;28;20287;-68
2022/08/28 11:37:54;;;;;;;7.27;3.13;;;30.40;46.70;;;;;;10467937;28;20239;-69
2022/08/28 11:43:33;;;;;;;7.30;2.93;;;29.80;47.40;;;;;;10471188;28;20224;-68
2022/08/28 11:48:38;;;;;;;7.17;2.80;;;29.70;47.70;;;;;;10484077;28;20266;-68
2022/08/28 11:54:16;;;;;;;3.97;2.70;;;29.50;48.20;;;;;;10466656;28;20223;-73
2022/08/28 11:59:20;;;;;;;5.77;3.07;;;29.50;48.40;;;;;;10475278;28;20218;-70
2022/08/28 12:04:22;;;;;;;8.70;3.00;;;29.50;48.10;;;;;;10478615;28;20215;-72
2022/08/28 12:09:25;;;;;;;5.27;3.00;;;29.60;48.30;;;;;;10477147;28;20231;-70
2022/08/28 12:14:26;;;;;;;6.43;2.57;;;29.40;48.20;;;;;;10478548;28;20277;-74
2022/08/28 12:19:32;;;;;;;8.00;3.10;;;28.60;49.30;;;;;;10469713;28;20751;-67
2022/08/28 12:24:35;;;;;;;7.07;3.53;;;27.90;51.20;;;;;;10481377;28;20222;-68
2022/08/28 12:29:47;;;;;;;5.67;2.67;;;27.30;52.40;;;;;;10477244;28;20218;-68
2022/08/28 12:34:57;;;;;;;7.37;2.97;;;27.20;53.00;;;;;;10460799;28;20229;-68
2022/08/28 12:40:06;;;;;;;3.93;2.80;;;27.10;53.50;;;;;;10470583;28;20209;-69
2022/08/28 12:45:09;;;;;;;19.70;3.43;;;27.20;53.50;;;;;;10473836;28;20226;-68
2022/08/28 12:50:20;;;;;;;7.37;3.50;;;27.20;53.50;;;;;;10474861;28;20186;-70
2022/08/28 12:55:23;;;;;;;5.30;2.70;;;27.40;53.10;;;;;;10475363;28;20229;-69
2022/08/28 13:00:34;;;;;;;6.97;2.97;;;27.50;52.70;;;;;;10479037;28;20660;-69
2022/08/28 13:05:40;;;;;;;6.13;2.90;;;27.10;53.40;;;;;;10463737;28;20216;-69
2022/08/28 13:10:47;;;;;;;4.83;2.80;;;27.00;53.50;;;;;;10480677;28;20817;-69
2022/08/28 13:15:56;;;;;;;6.43;2.57;;;27.10;53.50;;;;;;10461196;28;20230;-69
2022/08/28 13:21:16;;;;;;;9.97;2.97;;;27.20;53.00;;;;;;10473249;28;20342;-69
2022/08/28 13:26:23;;;;;;;5.47;2.70;;;27.00;53.10;;;;;;10463980;28;20224;-69
2022/08/28 13:31:37;;;;;;;6.83;3.23;;;27.00;53.30;;;;;;10465066;28;20230;-68
2022/08/28 13:36:47;;;;;;;5.53;3.07;;;27.00;53.10;;;;;;10461892;28;20233;-68
2022/08/28 13:41:52;;;;;;;7.43;3.30;;;27.00;53.30;;;;;;10467968;28;20241;-68
2022/08/28 13:46:54;;;;;;;4.53;2.67;;;27.20;53.40;;;;;;10470635;28;20670;-68
2022/08/28 13:51:57;;;;;;;4.93;2.60;;;27.20;53.10;;;;;;10477547;28;20276;-68
2022/08/28 13:56:58;;;;;;;4.50;2.57;;;27.20;53.30;;;;;;10469704;28;20238;-69
2022/08/28 14:07:22;;;;;;;4.77;2.93;;;27.30;53.00;;;;;;10475935;28;20230;-69
2022/08/28 14:12:24;;;;;;;4.07;2.50;;;27.20;53.30;;;;;;10468848;28;20225;-69
2022/08/28 14:17:24;;;;;;;5.13;2.63;;;27.20;52.70;;;;;;10461885;28;20230;-68
2022/08/28 14:22:25;;;;;;;8.23;3.40;;;27.50;52.60;;;;;;10469189;28;20222;-69
2022/08/28 14:27:26;;;;;;;5.10;2.93;;;27.80;51.80;;;;;;10470982;28;20226;-69
2022/08/28 14:32:26;;;;;;;11.17;2.87;;;27.90;51.80;;;;;;10471308;28;20619;-69
2022/08/28 14:37:27;;;;;;;6.80;2.60;;;28.00;51.40;;;;;;10465846;28;20227;-72
2022/08/28 14:42:28;;;;;;;7.23;2.80;;;27.90;51.20;;;;;;10469000;28;20215;-70
2022/08/28 14:47:29;;;;;;;5.83;2.77;;;28.00;51.30;;;;;;10471312;28;20239;-68
2022/08/28 14:52:29;;;;;;;5.30;2.83;;;28.00;51.10;;;;;;10461500;28;20246;-69
2022/08/28 14:57:33;;;;;;;6.27;3.90;;;28.00;50.80;;;;;;10461953;28;20226;-69
2022/08/28 15:02:34;;;;;;;5.00;3.00;;;28.10;51.00;;;;;;10475515;28;20244;-68
2022/08/28 15:07:34;;;;;;;6.17;3.00;;;28.10;50.60;;;;;;10476971;28;20221;-69
2022/08/28 15:12:35;;;;;;;5.40;3.23;;;28.20;50.50;;;;;;10471921;28;20272;-69
2022/08/28 15:17:35;;;;;;;7.07;2.97;;;28.10;49.60;;;;;;10466934;28;20230;-69
2022/08/28 15:22:37;;;;;;;4.53;2.60;;;27.90;50.00;;;;;;10471196;28;20216;-71
2022/08/28 15:27:38;;;;;;;6.27;3.23;;;27.40;50.50;;;;;;10465821;28;20309;-69
2022/08/28 15:32:40;;;;;;;4.93;3.63;;;27.10;49.90;;;;;;10472956;28;20305;-69
2022/08/28 15:37:41;;;;;;;6.07;3.13;;;26.70;49.00;;;;;;10492765;28;20240;-68
2022/08/28 15:42:43;;;;;;;5.57;3.20;;;26.50;49.80;;;;;;10463751;28;20339;-70
2022/08/28 15:47:43;;;;;;;5.43;3.73;;;26.40;49.40;;;;;;10476778;28;20830;-68
2022/08/28 15:52:44;;;;;;;6.83;3.47;;;26.30;49.60;;;;;;10460745;28;20225;-72
2022/08/28 15:57:45;;;;;;;6.97;3.47;;;26.20;50.10;;;;;;10472353;28;20232;-72
2022/08/28 16:02:46;;;;;;;5.77;3.37;;;26.10;50.00;;;;;;10469584;28;20823;-72
2022/08/28 16:07:47;;;;;;;6.83;3.43;;;26.10;50.30;;;;;;10475120;28;20303;-71
2022/08/28 16:12:47;;;;;;;4.80;3.37;;;26.10;50.30;;;;;;10470747;28;20212;-71
2022/08/28 16:17:48;;;;;;;7.50;3.50;;;26.10;50.40;;;;;;10468267;28;20220;-72
2022/08/28 16:22:50;;;;;;;7.77;3.83;;;25.90;50.40;;;;;;10461074;28;20343;-72
2022/08/28 16:27:51;;;;;;;6.20;3.47;;;25.90;50.70;;;;;;10470575;28;20294;-73
2022/08/28 16:32:52;;;;;;;7.93;3.40;;;25.80;51.10;;;;;;10477288;28;20285;-70
2022/08/28 16:37:55;;;;;;;6.33;3.20;;;25.70;51.50;;;;;;10465668;28;20228;-68
2022/08/28 16:42:56;;;;;;;5.27;3.20;;;25.70;52.20;;;;;;10467428;28;20217;-68
2022/08/28 16:47:58;;;;;;;5.20;3.20;;;25.70;53.80;;;;;;10468120;28;20248;-70
2022/08/28 16:52:59;;;;;;;7.63;3.73;;;25.70;53.30;;;;;;10464190;28;20223;-68
2022/08/28 16:58:00;;;;;;;10.63;3.37;;;25.60;51.10;;;;;;10474755;28;20246;-71
2022/08/28 17:03:01;;;;;;;6.50;3.60;;;25.60;55.10;;;;;;10464190;28;20246;-69
2022/08/28 17:08:01;;;;;;;7.53;3.70;;;25.50;52.70;;;;;;10469248;28;20226;-69
2022/08/28 17:13:02;;;;;;;5.27;3.70;;;25.30;51.60;;;;;;10471426;28;20615;-69
2022/08/28 17:18:03;;;;;;;6.90;3.70;;;25.20;51.20;;;;;;10469487;28;20232;-69
2022/08/28 17:23:04;;;;;;;5.87;3.83;;;25.10;51.50;;;;;;10459440;28;20261;-70
2022/08/28 17:28:05;;;;;;;5.50;3.57;;;25.00;52.00;;;;;;10464183;28;20216;-70
2022/08/28 17:33:06;;;;;;;8.13;3.70;;;24.80;51.80;;;;;;10465287;28;20223;-71
2022/08/28 17:38:06;;;;;;;7.10;3.70;;;24.70;52.60;;;;;;10466514;28;20689;-69
2022/08/28 17:43:07;;;;;;;8.00;3.87;;;24.60;52.40;;;;;;10477398;28;20577;-70
2022/08/28 17:48:08;;;;;;;5.83;3.80;;;24.50;52.70;;;;;;10465072;28;20219;-71
2022/08/28 17:53:08;;;;;;;5.37;3.33;;;24.30;53.20;;;;;;10463672;28;20211;-72
2022/08/28 17:58:10;;;;;;;5.90;3.37;;;24.20;53.80;;;;;;10464364;28;20236;-71
2022/08/28 18:03:11;;;;;;;5.70;3.50;;;24.00;55.10;;;;;;10450608;28;20223;-70
2022/08/28 18:08:13;;;;;;;5.93;3.53;;;23.90;54.40;;;;;;10472050;28;20231;-73
2022/08/28 18:13:14;;;;;;;5.93;3.87;;;23.80;54.70;;;;;;10466514;28;20235;-73
2022/08/28 18:18:17;;;;;;;6.07;3.80;;;23.60;55.10;;;;;;10463409;28;20234;-72
2022/08/28 18:23:18;;;;;;;4.87;4.00;;;23.50;55.00;;;;;;10467859;28;20227;-72
2022/08/28 18:28:21;;;;;;;6.33;4.63;;;23.40;55.70;;;;;;10476552;28;20219;-72
2022/08/28 18:33:23;;;;;;;7.00;4.00;;;23.10;56.10;;;;;;10457564;28;20307;-71
2022/08/28 18:38:28;;;;;;;5.70;3.70;;;23.00;56.70;;;;;;10460919;28;20227;-74
2022/08/28 18:43:29;;;;;;;5.00;3.30;;;22.80;56.90;;;;;;10467725;28;20226;-73
2022/08/28 18:48:31;;;;;;;4.60;3.40;;;22.60;57.10;;;;;;10460127;28;20234;-74
2022/08/28 18:53:31;;;;;;;5.70;3.50;;;22.50;57.30;;;;;;10461386;28;20219;-75
2022/08/28 18:58:32;;;;;;;6.00;3.60;;;22.50;57.80;;;;;;10474230;28;20226;-72
2022/08/28 19:03:33;;;;;;;6.47;3.30;;;22.40;57.90;;;;;;10470339;28;20632;-74
2022/08/28 19:08:36;;;;;;;7.07;3.87;;;22.20;58.00;;;;;;10455342;28;20225;-74
2022/08/28 19:13:38;;;;;;;9.03;3.90;;;22.20;58.20;;;;;;10460438;28;20243;-73
2022/08/28 19:18:38;;;;;;;6.43;3.30;;;22.30;58.30;;;;;;10474863;28;20273;-73
2022/08/28 19:23:39;;;;;;;7.50;3.40;;;22.40;58.20;;;;;;10466100;28;20292;-73
2022/08/28 19:28:42;;;;;;;6.43;3.43;;;22.30;57.80;;;;;;10468881;28;20291;-73
2022/08/28 19:33:46;;;;;;;7.07;3.27;;;22.30;58.00;;;;;;10455380;28;20238;-72
2022/08/28 19:38:47;;;;;;;7.23;3.00;;;22.10;58.30;;;;;;10465429;28;20306;-72
2022/08/28 19:43:51;;;;;;;5.37;3.23;;;22.00;58.70;;;;;;10464942;28;20299;-74
2022/08/28 19:48:52;;;;;;;7.50;2.83;;;21.90;59.10;;;;;;10478753;28;20230;-72
2022/08/28 19:53:54;;;;;;;7.00;2.87;;;21.80;59.30;;;;;;10477086;28;20307;-73
2022/08/28 19:58:57;;;;;;;5.67;2.50;;;21.70;59.40;;;;;;10483543;28;20398;-74
2022/08/28 20:03:59;;;;;;;4.30;2.67;;;21.60;59.80;;;;;;10472394;28;20742;-72
2022/08/28 20:09:00;;;;;;;6.73;2.53;;;21.50;59.90;;;;;;10467932;28;20298;-72
2022/08/28 20:14:03;;;;;;;7.77;2.70;;;21.40;60.00;;;;;;10472861;28;20239;-69
2022/08/28 20:19:06;;;;;;;4.60;2.43;;;21.30;60.00;;;;;;10467088;28;20238;-72
2022/08/28 20:24:12;;;;;;;5.77;2.60;;;21.20;60.20;;;;;;10464635;28;20288;-73
2022/08/28 20:29:19;;;;;;;6.33;3.03;;;21.20;60.40;;;;;;10464132;28;20215;-74
2022/08/28 20:34:20;;;;;;;4.00;2.10;;;21.10;60.70;;;;;;10471282;28;20747;-74
2022/08/28 20:39:20;;;;;;;6.50;2.13;;;21.00;60.90;;;;;;10471624;28;20226;-73
2022/08/28 20:44:21;;;;;;;4.80;2.30;;;20.90;61.00;;;;;;10468801;28;20223;-72
2022/08/28 20:49:22;;;;;;;4.97;2.43;;;20.90;61.10;;;;;;10467935;28;20223;-68
2022/08/28 20:54:29;;;;;;;4.87;2.40;;;20.80;61.20;;;;;;10465604;28;20281;-72
2022/08/28 20:59:30;;;;;;;6.27;2.60;;;20.80;61.60;;;;;;10479302;28;20717;-73
2022/08/28 21:04:35;;;;;;;6.00;2.50;;;20.70;61.70;;;;;;10464991;28;20723;-74
2022/08/28 21:09:36;;;;;;;4.63;2.30;;;20.60;62.10;;;;;;10468464;28;20224;-71
2022/08/28 21:14:39;;;;;;;6.27;1.93;;;20.50;62.70;;;;;;10472364;28;20698;-71
2022/08/28 21:19:40;;;;;;;5.90;2.03;;;20.30;62.80;;;;;;10463867;28;20220;-72
2022/08/28 21:24:40;;;;;;;7.00;2.57;;;20.20;64.40;;;;;;10463533;28;20218;-73
2022/08/28 21:29:41;;;;;;;4.73;2.40;;;20.10;64.00;;;;;;10465565;28;20707;-72
2022/08/28 21:34:42;;;;;;;7.30;2.30;;;20.10;64.20;;;;;;10463643;28;20218;-72
2022/08/28 21:39:43;;;;;;;6.93;2.80;;;20.10;64.40;;;;;;10471205;28;20625;-72
2022/08/28 21:44:43;;;;;;;7.87;2.70;;;20.10;64.50;;;;;;10462000;28;20584;-73
2022/08/28 21:49:51;;;;;;;4.63;2.10;;;20.00;64.90;;;;;;10467170;28;20261;-74
2022/08/28 21:54:56;;;;;;;6.67;2.27;;;19.90;65.30;;;;;;10463914;28;20226;-74
2022/08/28 21:59:57;;;;;;;5.97;2.33;;;19.80;65.80;;;;;;10467348;28;20229;-72
2022/08/28 22:04:58;;;;;;;7.83;2.63;;;19.70;66.30;;;;;;10467407;28;20226;-71
2022/08/28 22:10:02;;;;;;;5.87;2.37;;;19.60;66.70;;;;;;10471756;28;20763;-73
2022/08/28 22:15:04;;;;;;;7.07;2.20;;;19.60;67.20;;;;;;10467846;28;20229;-72
2022/08/28 22:20:05;;;;;;;3.90;1.93;;;19.50;67.40;;;;;;10471364;28;20249;-72
2022/08/28 22:25:06;;;;;;;6.80;2.47;;;19.40;68.00;;;;;;10462706;28;20228;-74
2022/08/28 22:30:07;;;;;;;6.57;2.20;;;19.40;68.40;;;;;;10464840;28;20909;-73
2022/08/28 22:35:09;;;;;;;7.80;2.70;;;19.30;68.80;;;;;;10463419;28;20211;-71
2022/08/28 22:40:11;;;;;;;5.97;2.23;;;19.30;69.10;;;;;;10473396;28;20178;-72
2022/08/28 22:45:12;;;;;;;6.80;2.13;;;19.30;69.40;;;;;;10455943;28;20284;-73
2022/08/28 22:50:12;;;;;;;8.70;2.80;;;19.20;69.70;;;;;;10467337;28;20622;-72
2022/08/28 22:55:15;;;;;;;6.60;2.80;;;19.10;70.10;;;;;;10457405;28;20225;-71
2022/08/28 23:00:20;;;;;;;3.53;2.10;;;19.10;70.60;;;;;;10470383;28;20186;-73
2022/08/28 23:05:21;;;;;;;6.77;2.47;;;19.00;71.00;;;;;;10468883;28;20183;-74
2022/08/28 23:10:26;;;;;;;8.03;2.63;;;18.90;71.40;;;;;;10468272;28;20203;-74
2022/08/28 23:15:27;;;;;;;6.87;2.40;;;18.80;71.90;;;;;;10456654;28;20616;-74
2022/08/28 23:20:28;;;;;;;6.37;2.40;;;18.70;72.30;;;;;;10464272;28;20221;-73
2022/08/28 23:25:28;;;;;;;8.53;2.50;;;18.70;72.60;;;;;;10468327;28;20276;-72
2022/08/28 23:30:29;;;;;;;6.10;2.07;;;18.60;72.90;;;;;;10467195;28;20309;-71
2022/08/28 23:35:30;;;;;;;5.73;2.33;;;18.60;73.40;;;;;;10468405;28;20245;-72
2022/08/28 23:40:31;;;;;;;5.53;2.10;;;18.50;73.90;;;;;;10469903;28;20227;-72
2022/08/28 23:45:32;;;;;;;7.03;2.40;;;18.40;75.20;;;;;;10458182;28;20257;-72
2022/08/28 23:50:33;;;;;;;5.87;2.17;;;18.30;74.70;;;;;;10472640;28;20241;-72
2022/08/28 23:55:34;;;;;;;4.57;2.20;;;18.20;75.10;;;;;;10469849;28;20273;-72
